VOZ167 NZAA-NFTF
Flight info
| Callsign | VOZ167 |
|---|---|
| Flight time | N/A |
| Altitude | 35000 |
| Route | ELPAK B575 KETUP KETUP1A |
| Aircraft | B738/M-SDE2E3FGHIRWXY/LB1 |
Departure
| Time | 2026-05-06 18:51 |
|---|---|
| Airport | Auckland International Airport (NZAA) |
Arrival
| Time | N/A |
|---|---|
| Airport | Fua'amotu International Airport (NFTF) |
| Time | Latitude | Longitude | Altitude | Speed | Heading |
|---|---|---|---|---|---|
| 2026-05-06 18:08 | -37.00729 | 174.78864 | 24 ft | 0 kts | 70° |
| 2026-05-06 18:38 | -37.00733 | 174.78851 | 27 ft | 4 kts | 80° |
| 2026-05-06 18:38 | -37.00730 | 174.78823 | 24 ft | 4 kts | 135° |
| 2026-05-06 18:39 | -37.00713 | 174.78809 | 26 ft | 0 kts | 161° |
| 2026-05-06 18:43 | -37.00727 | 174.78815 | 27 ft | 7 kts | 161° |
| 2026-05-06 18:43 | -37.00788 | 174.78841 | 26 ft | 11 kts | 161° |
| 2026-05-06 18:44 | -37.00844 | 174.78856 | 29 ft | 7 kts | 197° |
| 2026-05-06 18:44 | -37.00872 | 174.78811 | 26 ft | 7 kts | 248° |
| 2026-05-06 18:44 | -37.00891 | 174.78742 | 24 ft | 10 kts | 252° |
| 2026-05-06 18:44 | -37.00918 | 174.78645 | 24 ft | 13 kts | 251° |
| 2026-05-06 18:45 | -37.00951 | 174.78527 | 24 ft | 16 kts | 250° |
| 2026-05-06 18:45 | -37.00986 | 174.78396 | 25 ft | 14 kts | 255° |
| 2026-05-06 18:45 | -37.01005 | 174.78279 | 25 ft | 13 kts | 253° |
| 2026-05-06 18:45 | -37.01026 | 174.78206 | 27 ft | 13 kts | 251° |
| 2026-05-06 18:46 | -37.01064 | 174.78066 | 25 ft | 13 kts | 251° |
| 2026-05-06 18:46 | -37.01094 | 174.77958 | 25 ft | 14 kts | 251° |
| 2026-05-06 18:46 | -37.01123 | 174.77853 | 25 ft | 12 kts | 251° |
| 2026-05-06 18:46 | -37.01149 | 174.77758 | 25 ft | 11 kts | 251° |
| 2026-05-06 18:47 | -37.01176 | 174.77665 | 25 ft | 11 kts | 240° |
| 2026-05-06 18:47 | -37.01243 | 174.77642 | 27 ft | 11 kts | 168° |
| 2026-05-06 18:47 | -37.01297 | 174.77593 | 25 ft | 11 kts | 250° |
| 2026-05-06 18:47 | -37.01321 | 174.77507 | 25 ft | 11 kts | 251° |
| 2026-05-06 18:48 | -37.01348 | 174.77409 | 25 ft | 14 kts | 251° |
| 2026-05-06 18:48 | -37.01384 | 174.77278 | 29 ft | 18 kts | 251° |
| 2026-05-06 18:48 | -37.01417 | 174.77161 | 27 ft | 9 kts | 249° |
| 2026-05-06 18:48 | -37.01457 | 174.77114 | 29 ft | 8 kts | 202° |
| 2026-05-06 18:49 | -37.01511 | 174.77096 | 26 ft | 8 kts | 192° |
| 2026-05-06 18:49 | -37.01566 | 174.77082 | 26 ft | 8 kts | 187° |
| 2026-05-06 18:49 | -37.01612 | 174.77115 | 25 ft | 8 kts | 109° |
| 2026-05-06 18:49 | -37.01604 | 174.77182 | 25 ft | 8 kts | 70° |
| 2026-05-06 18:50 | -37.01538 | 174.77421 | 28 ft | 60 kts | 71° |
| 2026-05-06 18:50 | -37.01335 | 174.78156 | 26 ft | 117 kts | 71° |
| 2026-05-06 18:50 | -37.01009 | 174.79307 | 55 ft | 159 kts | 70° |
| 2026-05-06 18:50 | -37.00635 | 174.80614 | 582 ft | 163 kts | 70° |
| 2026-05-06 18:51 | -37.00247 | 174.82007 | 1021 ft | 176 kts | 70° |
| 2026-05-06 18:51 | -36.99862 | 174.83436 | 1720 ft | 175 kts | 67° |
| 2026-05-06 18:51 | -36.99444 | 174.84958 | 2008 ft | 198 kts | 67° |
| 2026-05-06 18:51 | -36.98975 | 174.86662 | 2236 ft | 215 kts | 67° |
| 2026-05-06 18:52 | -36.98474 | 174.88484 | 2575 ft | 226 kts | 67° |
| 2026-05-06 18:52 | -36.97952 | 174.90375 | 2932 ft | 239 kts | 67° |
| 2026-05-06 18:52 | -36.97391 | 174.92399 | 3374 ft | 251 kts | 67° |
| 2026-05-06 18:52 | -36.96819 | 174.94466 | 4127 ft | 251 kts | 67° |
| 2026-05-06 18:53 | -36.96246 | 174.96524 | 4773 ft | 257 kts | 67° |
| 2026-05-06 18:53 | -36.95649 | 174.98660 | 4966 ft | 257 kts | 67° |
| 2026-05-06 18:53 | -36.95070 | 175.00724 | 5005 ft | 255 kts | 65° |
| 2026-05-06 18:53 | -36.94090 | 175.02537 | 5307 ft | 255 kts | 37° |
| 2026-05-06 18:54 | -36.92527 | 175.03550 | 5968 ft | 254 kts | 13° |
| 2026-05-06 18:54 | -36.90767 | 175.03755 | 6668 ft | 256 kts | 359° |
| 2026-05-06 18:54 | -36.88978 | 175.03683 | 7307 ft | 259 kts | 357° |
| 2026-05-06 18:54 | -36.87157 | 175.03567 | 7912 ft | 264 kts | 356° |
| 2026-05-06 18:55 | -36.85318 | 175.03446 | 8597 ft | 265 kts | 356° |
| 2026-05-06 18:55 | -36.83467 | 175.03331 | 9277 ft | 267 kts | 356° |
| 2026-05-06 18:55 | -36.81600 | 175.03220 | 9944 ft | 270 kts | 356° |
| 2026-05-06 18:55 | -36.79698 | 175.03112 | 10392 ft | 281 kts | 356° |
| 2026-05-06 18:56 | -36.77669 | 175.02999 | 10541 ft | 302 kts | 356° |
| 2026-05-06 18:56 | -36.75503 | 175.02882 | 10683 ft | 321 kts | 356° |
| 2026-05-06 18:56 | -36.73208 | 175.02761 | 10816 ft | 339 kts | 356° |
| 2026-05-06 18:56 | -36.70793 | 175.02635 | 11007 ft | 354 kts | 356° |
| 2026-05-06 18:57 | -36.68307 | 175.02508 | 11423 ft | 360 kts | 356° |
| 2026-05-06 18:57 | -36.65788 | 175.02379 | 11948 ft | 364 kts | 356° |
| 2026-05-06 18:57 | -36.63250 | 175.02250 | 12484 ft | 367 kts | 356° |
| 2026-05-06 18:57 | -36.60682 | 175.02119 | 12981 ft | 371 kts | 356° |
| 2026-05-06 18:58 | -36.58089 | 175.01987 | 13514 ft | 375 kts | 356° |
| 2026-05-06 18:58 | -36.55467 | 175.01853 | 14050 ft | 379 kts | 356° |
| 2026-05-06 18:58 | -36.52823 | 175.01718 | 14542 ft | 382 kts | 356° |
| 2026-05-06 18:58 | -36.50155 | 175.01582 | 15042 ft | 385 kts | 356° |
| 2026-05-06 18:59 | -36.47461 | 175.01739 | 15534 ft | 392 kts | 8° |
| 2026-05-06 18:59 | -36.44830 | 175.02692 | 16044 ft | 397 kts | 20° |
| 2026-05-06 18:59 | -36.43183 | 175.03707 | 16366 ft | 402 kts | 29° |
| 2026-05-06 18:59 | -36.40065 | 175.06328 | 17017 ft | 407 kts | 33° |
| 2026-05-06 19:00 | -36.38527 | 175.07668 | 17329 ft | 410 kts | 33° |
| 2026-05-06 19:00 | -36.36186 | 175.09715 | 17796 ft | 413 kts | 33° |
| 2026-05-06 19:00 | -36.33823 | 175.11775 | 18244 ft | 417 kts | 33° |
| 2026-05-06 19:00 | -36.31436 | 175.13844 | 18694 ft | 420 kts | 33° |
| 2026-05-06 19:01 | -36.29026 | 175.15920 | 19093 ft | 423 kts | 33° |
| 2026-05-06 19:01 | -36.26599 | 175.18000 | 19508 ft | 425 kts | 33° |
| 2026-05-06 19:01 | -36.24158 | 175.20086 | 19912 ft | 428 kts | 33° |
| 2026-05-06 19:01 | -36.21692 | 175.22188 | 20313 ft | 431 kts | 33° |
| 2026-05-06 19:02 | -36.19215 | 175.24296 | 20703 ft | 434 kts | 33° |
| 2026-05-06 19:02 | -36.16721 | 175.26416 | 21098 ft | 436 kts | 33° |
| 2026-05-06 19:02 | -36.14210 | 175.28550 | 21462 ft | 439 kts | 33° |
| 2026-05-06 19:02 | -36.11681 | 175.30696 | 21801 ft | 443 kts | 33° |
| 2026-05-06 19:03 | -36.09133 | 175.32858 | 22172 ft | 445 kts | 32° |
| 2026-05-06 19:03 | -36.06574 | 175.35027 | 22533 ft | 448 kts | 33° |
| 2026-05-06 19:03 | -36.03998 | 175.37212 | 22890 ft | 450 kts | 32° |
| 2026-05-06 19:03 | -36.01406 | 175.39405 | 23218 ft | 453 kts | 33° |
| 2026-05-06 19:04 | -35.98805 | 175.41621 | 23558 ft | 456 kts | 33° |
| 2026-05-06 19:04 | -35.96200 | 175.43870 | 23888 ft | 458 kts | 34° |
| 2026-05-06 19:04 | -35.93575 | 175.46127 | 24071 ft | 463 kts | 33° |
| 2026-05-06 19:04 | -35.90919 | 175.48374 | 24417 ft | 462 kts | 33° |
| 2026-05-06 19:05 | -35.88249 | 175.50608 | 24660 ft | 465 kts | 33° |
| 2026-05-06 19:05 | -35.85564 | 175.52849 | 24921 ft | 468 kts | 33° |
| 2026-05-06 19:05 | -35.82899 | 175.55074 | 25202 ft | 469 kts | 33° |
| 2026-05-06 19:05 | -35.80193 | 175.57338 | 25442 ft | 472 kts | 33° |
| 2026-05-06 19:06 | -35.77469 | 175.59620 | 25709 ft | 474 kts | 33° |
| 2026-05-06 19:06 | -35.74735 | 175.61911 | 25882 ft | 478 kts | 33° |
| 2026-05-06 19:06 | -35.71983 | 175.64216 | 26184 ft | 478 kts | 33° |
| 2026-05-06 19:06 | -35.69241 | 175.66511 | 26576 ft | 477 kts | 33° |
| 2026-05-06 19:07 | -35.66490 | 175.68815 | 26749 ft | 480 kts | 33° |
| 2026-05-06 19:07 | -35.63725 | 175.71128 | 27016 ft | 482 kts | 33° |
| 2026-05-06 19:07 | -35.60948 | 175.73451 | 27227 ft | 484 kts | 33° |
| 2026-05-06 19:07 | -35.58160 | 175.75780 | 27473 ft | 486 kts | 33° |
| 2026-05-06 19:08 | -35.55356 | 175.78118 | 27684 ft | 488 kts | 33° |
| 2026-05-06 19:08 | -35.52551 | 175.80455 | 28011 ft | 487 kts | 33° |
| 2026-05-06 19:08 | -35.49750 | 175.82794 | 28323 ft | 487 kts | 34° |
| 2026-05-06 19:08 | -35.46934 | 175.85138 | 28517 ft | 490 kts | 34° |
| 2026-05-06 19:09 | -35.44109 | 175.87484 | 28857 ft | 489 kts | 34° |
| 2026-05-06 19:09 | -35.41295 | 175.89818 | 29222 ft | 488 kts | 34° |
| 2026-05-06 19:09 | -35.38485 | 175.92147 | 29528 ft | 488 kts | 34° |
| 2026-05-06 19:09 | -35.35671 | 175.94478 | 29839 ft | 488 kts | 34° |
| 2026-05-06 19:10 | -35.32864 | 175.96803 | 30221 ft | 486 kts | 34° |
| 2026-05-06 19:10 | -35.30066 | 175.99118 | 30562 ft | 485 kts | 34° |
| 2026-05-06 19:10 | -35.27268 | 176.01432 | 30814 ft | 485 kts | 34° |
| 2026-05-06 19:10 | -35.24469 | 176.03745 | 31070 ft | 485 kts | 34° |
| 2026-05-06 19:11 | -35.21672 | 176.06054 | 31328 ft | 485 kts | 34° |
| 2026-05-06 19:11 | -35.18874 | 176.08362 | 31608 ft | 485 kts | 34° |
| 2026-05-06 19:11 | -35.16090 | 176.10657 | 31871 ft | 484 kts | 34° |
| 2026-05-06 19:11 | -35.13289 | 176.12963 | 32130 ft | 484 kts | 34° |
| 2026-05-06 19:12 | -35.10501 | 176.15257 | 32400 ft | 483 kts | 34° |
| 2026-05-06 19:12 | -35.07712 | 176.17549 | 32665 ft | 483 kts | 34° |
| 2026-05-06 19:12 | -35.04930 | 176.19834 | 32920 ft | 483 kts | 34° |
| 2026-05-06 19:13 | -34.99318 | 176.24438 | 33156 ft | 488 kts | 34° |
| 2026-05-06 19:13 | -34.96503 | 176.26745 | 33440 ft | 487 kts | 34° |
| 2026-05-06 19:13 | -34.93699 | 176.29040 | 33756 ft | 485 kts | 34° |
| 2026-05-06 19:13 | -34.90901 | 176.31329 | 33982 ft | 485 kts | 34° |
| 2026-05-06 19:14 | -34.88095 | 176.33622 | 34145 ft | 486 kts | 33° |
| 2026-05-06 19:14 | -34.85322 | 176.35886 | 34337 ft | 486 kts | 33° |
| 2026-05-06 19:14 | -34.82513 | 176.38178 | 34556 ft | 486 kts | 33° |
| 2026-05-06 19:14 | -34.79709 | 176.40464 | 34796 ft | 484 kts | 33° |
| 2026-05-06 19:15 | -34.76914 | 176.42741 | 35020 ft | 483 kts | 33° |
| 2026-05-06 19:15 | -34.74120 | 176.45015 | 35195 ft | 483 kts | 33° |
| 2026-05-06 19:15 | -34.71325 | 176.47288 | 35314 ft | 484 kts | 33° |
| 2026-05-06 19:16 | -34.65700 | 176.51856 | 35316 ft | 486 kts | 33° |
| 2026-05-06 19:16 | -34.60088 | 176.56407 | 35320 ft | 484 kts | 33° |
| 2026-05-06 19:17 | -34.54496 | 176.60933 | 35328 ft | 482 kts | 33° |
| 2026-05-06 19:17 | -34.48920 | 176.65440 | 35328 ft | 481 kts | 33° |
| 2026-05-06 19:18 | -34.43350 | 176.69934 | 35326 ft | 481 kts | 33° |
| 2026-05-06 19:18 | -34.37780 | 176.74421 | 35328 ft | 481 kts | 33° |
| 2026-05-06 19:19 | -34.32203 | 176.78907 | 35330 ft | 482 kts | 33° |
| 2026-05-06 19:19 | -34.26616 | 176.83394 | 35330 ft | 483 kts | 33° |
| 2026-05-06 19:20 | -34.21014 | 176.87886 | 35332 ft | 484 kts | 33° |
| 2026-05-06 19:20 | -34.15401 | 176.92380 | 35319 ft | 485 kts | 32° |
| 2026-05-06 19:21 | -34.09654 | 176.96653 | 35332 ft | 486 kts | 30° |
| 2026-05-06 19:21 | -34.03801 | 177.00741 | 35330 ft | 487 kts | 29° |
| 2026-05-06 19:22 | -33.97932 | 177.04833 | 35331 ft | 488 kts | 30° |
| 2026-05-06 19:22 | -33.92062 | 177.08963 | 35326 ft | 489 kts | 30° |
| 2026-05-06 19:23 | -33.86227 | 177.13084 | 35328 ft | 490 kts | 30° |
| 2026-05-06 19:23 | -33.80347 | 177.17235 | 35328 ft | 490 kts | 30° |
| 2026-05-06 19:24 | -33.74456 | 177.21385 | 35330 ft | 491 kts | 30° |
| 2026-05-06 19:24 | -33.68566 | 177.25526 | 35325 ft | 491 kts | 30° |
| 2026-05-06 19:25 | -33.62673 | 177.29663 | 35320 ft | 490 kts | 30° |
| 2026-05-06 19:25 | -33.56786 | 177.33792 | 35333 ft | 490 kts | 30° |
| 2026-05-06 19:26 | -33.50899 | 177.37914 | 35324 ft | 490 kts | 30° |
| 2026-05-06 19:26 | -33.45008 | 177.42025 | 35322 ft | 490 kts | 30° |
| 2026-05-06 19:27 | -33.39120 | 177.46128 | 35323 ft | 490 kts | 30° |
| 2026-05-06 19:27 | -33.33233 | 177.50227 | 35330 ft | 489 kts | 30° |
| 2026-05-06 19:28 | -33.27348 | 177.54319 | 35329 ft | 489 kts | 30° |
| 2026-05-06 19:28 | -33.21461 | 177.58405 | 35326 ft | 489 kts | 30° |
| 2026-05-06 19:29 | -33.15574 | 177.62486 | 35327 ft | 489 kts | 30° |
| 2026-05-06 19:29 | -33.09683 | 177.66562 | 35314 ft | 490 kts | 30° |
| 2026-05-06 19:30 | -33.03790 | 177.70633 | 35327 ft | 490 kts | 30° |
| 2026-05-06 19:30 | -32.97887 | 177.74708 | 35332 ft | 491 kts | 30° |
| 2026-05-06 19:31 | -32.91976 | 177.78777 | 35326 ft | 491 kts | 30° |
| 2026-05-06 19:31 | -32.83097 | 177.84880 | 35318 ft | 492 kts | 30° |
| 2026-05-06 19:32 | -32.77172 | 177.88944 | 35323 ft | 492 kts | 30° |
| 2026-05-06 19:32 | -32.71281 | 177.92980 | 35318 ft | 492 kts | 30° |
| 2026-05-06 19:33 | -32.65304 | 177.97068 | 35320 ft | 493 kts | 30° |
| 2026-05-06 19:33 | -32.59404 | 178.01097 | 35306 ft | 493 kts | 30° |
| 2026-05-06 19:34 | -32.53456 | 178.05152 | 35316 ft | 493 kts | 30° |
| 2026-05-06 19:34 | -32.47504 | 178.09204 | 35327 ft | 494 kts | 30° |
| 2026-05-06 19:35 | -32.41549 | 178.13253 | 35316 ft | 494 kts | 30° |
| 2026-05-06 19:35 | -32.35588 | 178.17298 | 35314 ft | 494 kts | 30° |
| 2026-05-06 19:36 | -32.29632 | 178.21334 | 35304 ft | 493 kts | 30° |
| 2026-05-06 19:36 | -32.23682 | 178.25359 | 35310 ft | 493 kts | 30° |
| 2026-05-06 19:37 | -32.17733 | 178.29378 | 35315 ft | 492 kts | 30° |
| 2026-05-06 19:37 | -32.12793 | 178.32711 | 35313 ft | 492 kts | 30° |
| 2026-05-06 19:38 | -32.05845 | 178.37391 | 35304 ft | 492 kts | 30° |
| 2026-05-06 19:38 | -31.99899 | 178.41390 | 35309 ft | 492 kts | 30° |
| 2026-05-06 19:39 | -31.93949 | 178.45386 | 35312 ft | 493 kts | 30° |
| 2026-05-06 19:39 | -31.87992 | 178.49380 | 35326 ft | 493 kts | 30° |
| 2026-05-06 19:40 | -31.82026 | 178.53374 | 35302 ft | 493 kts | 30° |
| 2026-05-06 19:40 | -31.76060 | 178.57362 | 35291 ft | 493 kts | 30° |
| 2026-05-06 19:41 | -31.70095 | 178.61343 | 35299 ft | 493 kts | 30° |
| 2026-05-06 19:41 | -31.64134 | 178.65316 | 35303 ft | 492 kts | 30° |
| 2026-05-06 19:42 | -31.58176 | 178.69281 | 35302 ft | 492 kts | 30° |
| 2026-05-06 19:42 | -31.52219 | 178.73239 | 35305 ft | 492 kts | 30° |
| 2026-05-06 19:43 | -31.46301 | 178.77166 | 35298 ft | 492 kts | 30° |
| 2026-05-06 19:43 | -31.40311 | 178.81135 | 35294 ft | 492 kts | 30° |
| 2026-05-06 19:44 | -31.34355 | 178.85075 | 35297 ft | 492 kts | 30° |
| 2026-05-06 19:44 | -31.28436 | 178.88985 | 35299 ft | 492 kts | 30° |
| 2026-05-06 19:45 | -31.22479 | 178.92915 | 35280 ft | 491 kts | 30° |
| 2026-05-06 19:45 | -31.16530 | 178.96834 | 35287 ft | 491 kts | 30° |
| 2026-05-06 19:46 | -31.10585 | 179.00743 | 35292 ft | 490 kts | 30° |
| 2026-05-06 19:46 | -31.04642 | 179.04647 | 35284 ft | 490 kts | 30° |
| 2026-05-06 19:47 | -30.98698 | 179.08545 | 35289 ft | 490 kts | 30° |
| 2026-05-06 19:47 | -30.92756 | 179.12436 | 35273 ft | 490 kts | 30° |
| 2026-05-06 19:48 | -30.87772 | 179.15696 | 35283 ft | 490 kts | 30° |
| 2026-05-06 19:48 | -30.81860 | 179.19557 | 35291 ft | 491 kts | 30° |
| 2026-05-06 19:49 | -30.75860 | 179.23470 | 35289 ft | 491 kts | 30° |
| 2026-05-06 19:49 | -30.69933 | 179.27330 | 35293 ft | 492 kts | 30° |
| 2026-05-06 19:50 | -30.63966 | 179.31211 | 35281 ft | 491 kts | 30° |
| 2026-05-06 19:50 | -30.58006 | 179.35081 | 35274 ft | 490 kts | 30° |
| 2026-05-06 19:51 | -30.52056 | 179.38940 | 35279 ft | 489 kts | 30° |
| 2026-05-06 19:51 | -30.46121 | 179.42784 | 35271 ft | 488 kts | 30° |
| 2026-05-06 19:52 | -30.40193 | 179.46617 | 35277 ft | 487 kts | 30° |
| 2026-05-06 19:52 | -30.34272 | 179.50441 | 35268 ft | 487 kts | 30° |
| 2026-05-06 19:53 | -30.28354 | 179.54258 | 35273 ft | 487 kts | 30° |
| 2026-05-06 19:53 | -30.22430 | 179.58073 | 35276 ft | 488 kts | 30° |
| 2026-05-06 19:54 | -30.16498 | 179.61888 | 35277 ft | 489 kts | 30° |
| 2026-05-06 19:54 | -30.10550 | 179.65708 | 35270 ft | 489 kts | 30° |
| 2026-05-06 19:55 | -30.04597 | 179.69528 | 35263 ft | 489 kts | 30° |
| 2026-05-06 19:55 | -29.98643 | 179.73341 | 35260 ft | 490 kts | 29° |
| 2026-05-06 19:56 | -29.92685 | 179.77147 | 35258 ft | 490 kts | 29° |
| 2026-05-06 19:56 | -29.86723 | 179.80952 | 35257 ft | 489 kts | 29° |
| 2026-05-06 19:57 | -29.80768 | 179.84748 | 35252 ft | 489 kts | 29° |
| 2026-05-06 19:57 | -29.74812 | 179.88540 | 35258 ft | 489 kts | 29° |
| 2026-05-06 19:58 | -29.68864 | 179.92322 | 35253 ft | 489 kts | 29° |
| 2026-05-06 19:58 | -29.62906 | 179.96105 | 35254 ft | 489 kts | 29° |
| 2026-05-06 19:59 | -29.56954 | 179.99880 | 35246 ft | 489 kts | 29° |
| 2026-05-06 19:59 | -29.51008 | -179.96354 | 35248 ft | 487 kts | 29° |
| 2026-05-06 20:00 | -29.45078 | -179.92604 | 35244 ft | 486 kts | 29° |
| 2026-05-06 20:00 | -29.39152 | -179.88861 | 35247 ft | 486 kts | 29° |
| 2026-05-06 20:01 | -29.33211 | -179.85115 | 35245 ft | 489 kts | 29° |
| 2026-05-06 20:01 | -29.27246 | -179.81357 | 35247 ft | 489 kts | 29° |
| 2026-05-06 20:02 | -29.21294 | -179.77614 | 35238 ft | 487 kts | 29° |
| 2026-05-06 20:02 | -29.15368 | -179.73890 | 35233 ft | 485 kts | 29° |
| 2026-05-06 20:03 | -29.09447 | -179.70177 | 35234 ft | 486 kts | 29° |
| 2026-05-06 20:03 | -29.03498 | -179.66449 | 35232 ft | 489 kts | 29° |
| 2026-05-06 20:04 | -28.97505 | -179.62699 | 35243 ft | 493 kts | 29° |
| 2026-05-06 20:04 | -28.91499 | -179.58946 | 35228 ft | 491 kts | 29° |
| 2026-05-06 20:05 | -28.85527 | -179.55219 | 35218 ft | 488 kts | 29° |
| 2026-05-06 20:05 | -28.79591 | -179.51520 | 35225 ft | 485 kts | 29° |
| 2026-05-06 20:06 | -28.73654 | -179.47825 | 35226 ft | 487 kts | 29° |
| 2026-05-06 20:06 | -28.67676 | -179.44109 | 35229 ft | 492 kts | 29° |
| 2026-05-06 20:07 | -28.61646 | -179.40365 | 35223 ft | 495 kts | 29° |
| 2026-05-06 20:07 | -28.55614 | -179.36626 | 35211 ft | 490 kts | 29° |
| 2026-05-06 20:08 | -28.49670 | -179.32947 | 35201 ft | 483 kts | 29° |
| 2026-05-06 20:08 | -28.43749 | -179.29285 | 35225 ft | 487 kts | 29° |
| 2026-05-06 20:09 | -28.37753 | -179.25582 | 35218 ft | 493 kts | 29° |
| 2026-05-06 20:09 | -28.31751 | -179.21875 | 35221 ft | 493 kts | 28° |
| 2026-05-06 20:10 | -28.25795 | -179.18208 | 35201 ft | 483 kts | 28° |
| 2026-05-06 20:10 | -28.19915 | -179.14594 | 35188 ft | 479 kts | 28° |
| 2026-05-06 20:11 | -28.14029 | -179.10979 | 35214 ft | 483 kts | 28° |
| 2026-05-06 20:11 | -28.08074 | -179.07325 | 35203 ft | 490 kts | 28° |
| 2026-05-06 20:12 | -28.02070 | -179.03645 | 35195 ft | 489 kts | 28° |
| 2026-05-06 20:12 | -27.96099 | -178.99991 | 35195 ft | 486 kts | 28° |
| 2026-05-06 20:13 | -27.90167 | -178.96365 | 35183 ft | 484 kts | 28° |
| 2026-05-06 20:13 | -27.84222 | -178.92735 | 35180 ft | 488 kts | 28° |
| 2026-05-06 20:14 | -27.78226 | -178.89080 | 35185 ft | 493 kts | 28° |
| 2026-05-06 20:14 | -27.72205 | -178.85413 | 35168 ft | 490 kts | 28° |
| 2026-05-06 20:15 | -27.69238 | -178.83605 | 35188 ft | 478 kts | 27° |
| 2026-05-06 20:15 | -27.66348 | -178.81849 | 35171 ft | 467 kts | 27° |
| 2026-05-06 20:15 | -27.60656 | -178.78390 | 35184 ft | 466 kts | 27° |
| 2026-05-06 20:16 | -27.54904 | -178.74900 | 35183 ft | 473 kts | 27° |
| 2026-05-06 20:16 | -27.49079 | -178.71373 | 35183 ft | 477 kts | 26° |
| 2026-05-06 20:17 | -27.43245 | -178.67839 | 35168 ft | 476 kts | 27° |
| 2026-05-06 20:17 | -27.37416 | -178.64317 | 35163 ft | 476 kts | 26° |
| 2026-05-06 20:18 | -27.31584 | -178.60796 | 35170 ft | 476 kts | 27° |
| 2026-05-06 20:18 | -27.25722 | -178.57259 | 35174 ft | 480 kts | 27° |
| 2026-05-06 20:19 | -27.19834 | -178.53711 | 35152 ft | 480 kts | 26° |
| 2026-05-06 20:19 | -27.13970 | -178.50182 | 35151 ft | 478 kts | 27° |
| 2026-05-06 20:20 | -27.08103 | -178.46659 | 35161 ft | 478 kts | 26° |
| 2026-05-06 20:20 | -27.02309 | -178.43181 | 35142 ft | 467 kts | 26° |
| 2026-05-06 20:21 | -26.96587 | -178.39754 | 35140 ft | 466 kts | 27° |
| 2026-05-06 20:21 | -26.90912 | -178.36357 | 35147 ft | 465 kts | 27° |
| 2026-05-06 20:22 | -26.85195 | -178.32934 | 35129 ft | 466 kts | 25° |
| 2026-05-06 20:22 | -26.79438 | -178.29495 | 35145 ft | 472 kts | 26° |
| 2026-05-06 20:23 | -26.73605 | -178.26017 | 35140 ft | 477 kts | 26° |
| 2026-05-06 20:23 | -26.67730 | -178.22513 | 35138 ft | 480 kts | 27° |
| 2026-05-06 20:24 | -26.61868 | -178.19020 | 35122 ft | 475 kts | 26° |
| 2026-05-06 20:24 | -26.56072 | -178.15576 | 35124 ft | 470 kts | 26° |
| 2026-05-06 20:25 | -26.50285 | -178.12142 | 35134 ft | 474 kts | 27° |
| 2026-05-06 20:25 | -26.44428 | -178.08674 | 35134 ft | 478 kts | 25° |
| 2026-05-06 20:26 | -26.38638 | -178.05230 | 35112 ft | 465 kts | 26° |
| 2026-05-06 20:26 | -26.32961 | -178.01869 | 35122 ft | 461 kts | 25° |
| 2026-05-06 20:27 | -26.27299 | -177.98525 | 35111 ft | 461 kts | 24° |
| 2026-05-06 20:27 | -26.21631 | -177.95186 | 35108 ft | 463 kts | 26° |
| 2026-05-06 20:28 | -26.15903 | -177.91802 | 35121 ft | 469 kts | 26° |
| 2026-05-06 20:28 | -26.10103 | -177.88387 | 35115 ft | 473 kts | 25° |
| 2026-05-06 20:29 | -26.04274 | -177.84958 | 35099 ft | 475 kts | 25° |
| 2026-05-06 20:29 | -25.98435 | -177.81528 | 35098 ft | 475 kts | 26° |
| 2026-05-06 20:30 | -25.89725 | -177.76408 | 35096 ft | 474 kts | 25° |
| 2026-05-06 20:31 | -25.83898 | -177.72991 | 35096 ft | 474 kts | 26° |
| 2026-05-06 20:31 | -25.78086 | -177.69584 | 35101 ft | 467 kts | 26° |
| 2026-05-06 20:32 | -25.72435 | -177.66275 | 35077 ft | 453 kts | 26° |
| 2026-05-06 20:32 | -25.66860 | -177.63020 | 35095 ft | 454 kts | 25° |
| 2026-05-06 20:33 | -25.62156 | -177.60278 | 35089 ft | 458 kts | 24° |
| 2026-05-06 20:33 | -25.56493 | -177.56973 | 35092 ft | 463 kts | 26° |
| 2026-05-06 20:34 | -25.50754 | -177.53631 | 35086 ft | 467 kts | 25° |
| 2026-05-06 20:34 | -25.45034 | -177.50303 | 35076 ft | 468 kts | 25° |
| 2026-05-06 20:35 | -25.39275 | -177.46950 | 35073 ft | 468 kts | 25° |
| 2026-05-06 20:35 | -25.33513 | -177.43608 | 35076 ft | 467 kts | 25° |
| 2026-05-06 20:36 | -25.27761 | -177.40270 | 35060 ft | 467 kts | 25° |
| 2026-05-06 20:36 | -25.22003 | -177.36935 | 35055 ft | 468 kts | 26° |
| 2026-05-06 20:37 | -25.16235 | -177.33596 | 35072 ft | 469 kts | 26° |
| 2026-05-06 20:37 | -25.10502 | -177.30277 | 35046 ft | 457 kts | 25° |
| 2026-05-06 20:38 | -25.04921 | -177.27051 | 35059 ft | 450 kts | 24° |
| 2026-05-06 20:38 | -24.99347 | -177.23839 | 35059 ft | 454 kts | 26° |
| 2026-05-06 20:39 | -24.93701 | -177.20597 | 35045 ft | 461 kts | 26° |
| 2026-05-06 20:39 | -24.87980 | -177.17313 | 35049 ft | 466 kts | 24° |
| 2026-05-06 20:40 | -24.82212 | -177.14004 | 35038 ft | 469 kts | 27° |
| 2026-05-06 20:40 | -24.76454 | -177.10696 | 35041 ft | 464 kts | 26° |
| 2026-05-06 20:41 | -24.70751 | -177.07426 | 35030 ft | 461 kts | 24° |
| 2026-05-06 20:41 | -24.65086 | -177.04185 | 35034 ft | 458 kts | 24° |
| 2026-05-06 20:42 | -24.59430 | -177.00956 | 35034 ft | 460 kts | 26° |
| 2026-05-06 20:42 | -24.53719 | -176.97690 | 35038 ft | 465 kts | 23° |
| 2026-05-06 20:43 | -24.47952 | -176.94399 | 35024 ft | 466 kts | 24° |
| 2026-05-06 20:43 | -24.42340 | -176.91198 | 35016 ft | 451 kts | 24° |
| 2026-05-06 20:44 | -24.36778 | -176.88032 | 35026 ft | 451 kts | 25° |
| 2026-05-06 20:44 | -24.31184 | -176.84854 | 35024 ft | 455 kts | 24° |
| 2026-05-06 20:45 | -24.25525 | -176.81644 | 35005 ft | 461 kts | 24° |